Time;durP1;ratioP1;P1;durP2;ratioP2;P2;SDS_P1;SDS_P2;PMS_P1;PMS_P2;Temp;Humidity;BMP_temperature;BMP_pressure;BME280_temperature;BME280_humidity;BME280_pressure;Samples;Min_cycle;Max_cycle;Signal;HPM_P1;HPM_P2
2022/05/31 00:00:22;;;;;;;1.35;1.25;;;7.90;99.90;;;;;;7379064;19;20349;-67
2022/05/31 00:02:48;;;;;;;1.50;1.40;;;8.00;99.90;;;;;;7374211;19;20351;-67
2022/05/31 00:05:14;;;;;;;1.50;1.40;;;7.90;99.90;;;;;;7375018;19;20361;-67
2022/05/31 00:07:39;;;;;;;1.45;1.35;;;7.90;99.90;;;;;;7376789;19;20348;-67
2022/05/31 00:10:06;;;;;;;1.50;1.40;;;7.80;99.90;;;;;;7378347;19;20370;-67
2022/05/31 00:12:32;;;;;;;1.63;1.52;;;7.80;99.90;;;;;;7377545;19;20380;-67
2022/05/31 00:14:58;;;;;;;1.60;1.50;;;7.80;99.90;;;;;;7373714;19;20440;-68
2022/05/31 00:17:24;;;;;;;1.58;1.48;;;7.70;99.90;;;;;;7374552;19;20357;-67
2022/05/31 00:19:50;;;;;;;1.77;1.60;;;7.70;99.90;;;;;;7376049;19;20344;-67
2022/05/31 00:22:17;;;;;;;1.43;1.37;;;7.70;99.90;;;;;;7376300;19;20365;-67
2022/05/31 00:24:43;;;;;;;1.20;1.10;;;7.60;99.90;;;;;;7376804;19;20424;-67
2022/05/31 00:27:10;;;;;;;2.00;1.70;;;7.60;99.90;;;;;;7377820;19;20347;-68
2022/05/31 00:29:36;;;;;;;1.90;1.60;;;7.60;99.90;;;;;;7379411;19;20372;-67
2022/05/31 00:32:04;;;;;;;2.53;1.67;;;7.40;99.90;;;;;;7373900;19;20923;-69
2022/05/31 00:34:30;;;;;;;1.88;1.77;;;7.40;99.90;;;;;;7377793;19;20336;-66
2022/05/31 00:36:56;;;;;;;1.80;1.70;;;7.40;99.90;;;;;;7372551;19;20335;-66
2022/05/31 00:39:22;;;;;;;1.40;1.30;;;7.30;99.90;;;;;;7375431;19;20369;-66
2022/05/31 00:41:58;;;;;;;1.50;1.30;;;7.30;99.90;;;;;;7376015;19;20352;-67
2022/05/31 00:44:27;;;;;;;1.73;1.63;;;7.30;99.90;;;;;;7377404;19;20352;-67
2022/05/31 00:47:08;;;;;;;1.88;1.63;;;7.30;99.90;;;;;;7374707;19;20882;-69
2022/05/31 00:49:34;;;;;;;1.60;1.50;;;7.30;99.90;;;;;;7378525;19;20364;-67
2022/05/31 00:52:10;;;;;;;1.63;1.53;;;7.20;99.90;;;;;;7373794;19;20381;-66
2022/05/31 00:54:38;;;;;;;1.70;1.60;;;7.20;99.90;;;;;;7377654;19;20356;-66
2022/05/31 00:57:03;;;;;;;1.45;1.35;;;7.20;99.90;;;;;;7376746;19;20373;-67
2022/05/31 00:59:42;;;;;;;1.60;1.50;;;7.20;99.90;;;;;;7374731;19;21414;-67
2022/05/31 01:02:09;;;;;;;1.45;1.35;;;7.10;99.90;;;;;;7372083;19;20351;-66
2022/05/31 01:04:41;;;;;;;1.60;1.50;;;7.10;99.90;;;;;;7378062;19;20373;-67
2022/05/31 01:07:06;;;;;;;1.30;1.20;;;7.00;99.90;;;;;;7375079;19;20424;-66
2022/05/31 01:09:32;;;;;;;1.88;1.77;;;7.00;99.90;;;;;;7373415;19;20372;-67
2022/05/31 01:12:17;;;;;;;1.40;1.30;;;7.00;99.90;;;;;;7376514;19;20893;-66
2022/05/31 01:15:01;;;;;;;2.03;1.70;;;7.00;99.90;;;;;;7373118;19;20371;-69
2022/05/31 01:17:50;;;;;;;2.03;1.60;;;7.00;99.90;;;;;;7374995;19;21033;-66
2022/05/31 01:20:28;;;;;;;2.60;1.50;;;7.00;99.90;;;;;;7376490;19;20788;-65
2022/05/31 01:23:12;;;;;;;2.00;1.80;;;7.00;99.90;;;;;;7374526;19;20341;-66
2022/05/31 01:25:59;;;;;;;1.63;1.53;;;7.00;99.90;;;;;;7377290;19;20352;-66
2022/05/31 01:29:04;;;;;;;1.80;1.70;;;6.90;99.90;;;;;;7375283;19;20364;-66
2022/05/31 01:31:35;;;;;;;1.50;1.40;;;6.90;99.90;;;;;;7375239;19;20357;-66
2022/05/31 01:34:24;;;;;;;2.20;2.00;;;6.90;99.90;;;;;;7376997;19;21120;-66
2022/05/31 01:36:52;;;;;;;2.47;1.67;;;6.90;99.90;;;;;;7376320;19;20341;-66
2022/05/31 01:39:20;;;;;;;3.20;1.88;;;6.80;99.90;;;;;;7378397;19;20363;-67
2022/05/31 01:41:57;;;;;;;1.27;1.27;;;6.90;99.90;;;;;;7372710;19;20982;-66
2022/05/31 01:44:24;;;;;;;2.30;1.60;;;6.80;99.90;;;;;;7373833;19;20348;-66
2022/05/31 01:46:51;;;;;;;1.80;1.70;;;6.80;99.90;;;;;;7370881;19;20372;-66
2022/05/31 01:49:17;;;;;;;1.63;1.52;;;6.80;99.90;;;;;;7374352;19;20733;-66
2022/05/31 01:51:43;;;;;;;1.70;1.60;;;6.70;99.90;;;;;;7374852;19;20356;-66
2022/05/31 01:54:09;;;;;;;2.20;1.52;;;6.80;99.90;;;;;;7377983;19;20369;-66
2022/05/31 01:56:35;;;;;;;1.67;1.58;;;6.70;99.90;;;;;;7370495;19;20385;-66
2022/05/31 01:59:02;;;;;;;1.70;1.60;;;6.60;99.90;;;;;;7374300;19;20341;-66
2022/05/31 02:01:30;;;;;;;1.65;1.55;;;6.50;99.90;;;;;;7371648;19;20344;-67
2022/05/31 02:03:56;;;;;;;1.15;1.15;;;6.40;99.90;;;;;;7373843;19;20355;-66
2022/05/31 02:06:23;;;;;;;1.50;1.40;;;6.40;99.90;;;;;;7374391;19;20333;-66
2022/05/31 02:08:49;;;;;;;1.45;1.35;;;6.40;99.90;;;;;;7371596;19;20360;-66
2022/05/31 02:11:15;;;;;;;1.90;1.70;;;6.40;99.90;;;;;;7371039;19;20350;-66
2022/05/31 02:13:41;;;;;;;1.70;1.60;;;6.40;99.90;;;;;;7374974;19;20367;-65
2022/05/31 02:16:10;;;;;;;1.50;1.40;;;6.40;99.90;;;;;;7370647;19;20344;-66
2022/05/31 02:21:45;;;;;;;2.00;1.58;;;6.40;99.90;;;;;;7373725;19;20380;-66
2022/05/31 02:24:13;;;;;;;2.00;1.90;;;6.30;99.90;;;;;;7374098;19;20724;-66
2022/05/31 02:26:41;;;;;;;1.90;1.80;;;6.20;99.90;;;;;;7374004;19;20363;-66
2022/05/31 02:29:09;;;;;;;2.08;1.90;;;6.20;99.90;;;;;;7372808;19;20356;-66
2022/05/31 02:31:34;;;;;;;1.67;1.58;;;6.20;99.90;;;;;;7370573;19;20337;-66
2022/05/31 02:34:00;;;;;;;2.22;1.60;;;6.10;99.90;;;;;;7372867;19;20940;-65
2022/05/31 02:36:26;;;;;;;1.80;1.30;;;6.10;99.90;;;;;;7371292;19;20439;-66
2022/05/31 02:38:53;;;;;;;1.80;1.70;;;6.00;99.90;;;;;;7372072;19;21240;-66
2022/05/31 02:41:20;;;;;;;2.80;1.60;;;6.10;99.90;;;;;;7371105;19;20420;-66
2022/05/31 02:43:46;;;;;;;1.37;1.30;;;6.00;99.90;;;;;;7373070;19;20562;-66
2022/05/31 02:46:12;;;;;;;1.50;1.40;;;5.90;99.90;;;;;;7372088;19;20324;-66
2022/05/31 02:48:38;;;;;;;1.80;1.60;;;5.90;99.90;;;;;;7371613;19;22331;-66
2022/05/31 02:51:03;;;;;;;1.73;1.63;;;5.90;99.90;;;;;;7372215;19;20341;-66
2022/05/31 02:53:29;;;;;;;1.90;1.80;;;5.90;99.90;;;;;;7372993;19;20357;-66
2022/05/31 02:55:56;;;;;;;1.85;1.75;;;5.80;99.90;;;;;;7370907;19;21145;-66
2022/05/31 02:58:54;;;;;;;1.80;1.70;;;5.90;99.90;;;;;;7368980;19;20372;-66
2022/05/31 03:01:39;;;;;;;1.85;1.75;;;5.90;99.90;;;;;;7371497;19;20347;-66
2022/05/31 03:04:30;;;;;;;1.80;1.70;;;5.90;99.90;;;;;;7369022;19;20402;-66
2022/05/31 03:07:14;;;;;;;2.00;1.80;;;5.90;99.90;;;;;;7372177;19;20363;-66
2022/05/31 03:09:59;;;;;;;1.80;1.70;;;5.90;99.90;;;;;;7373431;19;20424;-66
2022/05/31 03:12:24;;;;;;;2.60;1.70;;;5.80;99.90;;;;;;7368958;19;20770;-66
2022/05/31 03:14:53;;;;;;;1.80;1.70;;;5.90;99.90;;;;;;7374076;19;20364;-65
2022/05/31 03:17:20;;;;;;;1.30;1.30;;;5.80;99.90;;;;;;7370135;19;21227;-66
2022/05/31 03:19:51;;;;;;;1.60;1.50;;;5.90;99.90;;;;;;7372201;19;20372;-66
2022/05/31 03:22:20;;;;;;;1.65;1.55;;;6.00;99.90;;;;;;7363650;19;20381;-66
2022/05/31 03:24:57;;;;;;;1.95;1.85;;;6.00;99.90;;;;;;7369358;19;20360;-65
2022/05/31 03:27:24;;;;;;;1.85;1.75;;;6.00;99.90;;;;;;7363665;19;20352;-66
2022/05/31 03:29:52;;;;;;;2.20;2.00;;;6.10;99.90;;;;;;7368498;19;20363;-66
2022/05/31 03:32:18;;;;;;;1.90;1.80;;;6.10;99.90;;;;;;7366277;19;20906;-66
2022/05/31 03:34:44;;;;;;;1.50;1.40;;;6.10;99.90;;;;;;7371633;19;20368;-67
2022/05/31 03:37:11;;;;;;;1.50;1.40;;;6.20;99.90;;;;;;7368536;19;20332;-67
2022/05/31 03:39:37;;;;;;;1.70;1.60;;;6.20;99.90;;;;;;7371673;19;20360;-66
2022/05/31 03:42:04;;;;;;;1.60;1.50;;;6.30;99.90;;;;;;7366007;19;21423;-66
2022/05/31 03:44:30;;;;;;;1.70;1.60;;;6.30;99.90;;;;;;7370113;19;20368;-66
2022/05/31 03:47:20;;;;;;;1.60;1.50;;;6.40;99.90;;;;;;7368162;19;20369;-69
2022/05/31 03:49:49;;;;;;;1.52;1.42;;;6.50;99.90;;;;;;7365638;19;20369;-67
2022/05/31 03:52:16;;;;;;;2.10;1.70;;;6.50;99.90;;;;;;7345726;19;20348;-66
2022/05/31 03:54:42;;;;;;;1.77;1.67;;;6.50;99.90;;;;;;7367298;19;20361;-66
2022/05/31 03:57:28;;;;;;;1.60;1.50;;;6.60;99.90;;;;;;7368749;19;21316;-66
2022/05/31 04:00:08;;;;;;;1.52;1.42;;;6.60;99.90;;;;;;7374436;19;20384;-66
2022/05/31 04:02:59;;;;;;;1.80;1.70;;;6.70;99.90;;;;;;7379976;19;20369;-66
2022/05/31 04:05:25;;;;;;;1.70;1.60;;;6.80;99.90;;;;;;7374601;19;20356;-66
2022/05/31 04:07:51;;;;;;;1.90;1.80;;;6.90;99.90;;;;;;7377471;19;20966;-68
2022/05/31 04:10:17;;;;;;;1.73;1.63;;;7.00;99.90;;;;;;7377494;19;21031;-72
2022/05/31 04:12:43;;;;;;;2.00;1.80;;;7.20;99.90;;;;;;7378286;19;20439;-66
2022/05/31 04:15:29;;;;;;;1.80;1.70;;;7.20;99.90;;;;;;7372700;19;21390;-67
2022/05/31 04:17:54;;;;;;;2.30;1.97;;;7.50;99.90;;;;;;7372120;19;20349;-67
2022/05/31 04:20:20;;;;;;;1.73;1.63;;;7.40;99.90;;;;;;7378019;19;20419;-66
2022/05/31 04:22:46;;;;;;;2.10;1.73;;;7.50;99.90;;;;;;7374643;19;20347;-66
2022/05/31 04:25:30;;;;;;;2.25;2.05;;;7.70;99.90;;;;;;7376808;19;20898;-68
2022/05/31 04:28:27;;;;;;;1.63;1.50;;;7.80;99.90;;;;;;7374547;19;20370;-66
2022/05/31 04:31:11;;;;;;;1.52;1.42;;;7.90;99.90;;;;;;7372107;19;20364;-67
2022/05/31 04:34:06;;;;;;;1.90;1.80;;;8.00;99.90;;;;;;7375521;19;20861;-67
2022/05/31 04:36:32;;;;;;;1.75;1.65;;;8.20;99.90;;;;;;7368597;19;20352;-67
2022/05/31 04:38:59;;;;;;;2.20;2.00;;;8.30;99.90;;;;;;7375626;19;20360;-66
2022/05/31 04:41:28;;;;;;;2.00;1.80;;;8.50;99.90;;;;;;7376088;19;20381;-67
2022/05/31 04:44:06;;;;;;;4.78;1.80;;;8.60;99.90;;;;;;7372459;19;20332;-66
2022/05/31 04:46:34;;;;;;;2.97;1.70;;;9.00;99.90;;;;;;7368611;19;20376;-67
2022/05/31 04:49:10;;;;;;;1.65;1.55;;;9.00;99.90;;;;;;7370578;19;20871;-68
2022/05/31 04:51:36;;;;;;;1.70;1.60;;;9.10;99.90;;;;;;7374895;19;20352;-67
2022/05/31 04:54:04;;;;;;;1.60;1.50;;;9.30;99.90;;;;;;7375611;19;20964;-67
2022/05/31 04:56:45;;;;;;;1.60;1.50;;;9.40;99.90;;;;;;7371804;19;20357;-67
2022/05/31 04:59:11;;;;;;;1.60;1.50;;;9.50;99.90;;;;;;7371968;19;21241;-67
2022/05/31 05:01:39;;;;;;;1.38;1.33;;;9.70;99.90;;;;;;7373147;19;20701;-67
2022/05/31 05:04:11;;;;;;;1.73;1.63;;;9.80;99.90;;;;;;7376457;19;20381;-67
2022/05/31 05:06:43;;;;;;;1.88;1.70;;;10.00;99.90;;;;;;7369442;19;20361;-67
2022/05/31 05:09:09;;;;;;;1.65;1.55;;;10.10;99.90;;;;;;7370908;19;20340;-67
2022/05/31 05:11:38;;;;;;;1.73;1.63;;;10.30;99.90;;;;;;7370399;19;20356;-67
2022/05/31 05:14:17;;;;;;;1.70;1.60;;;10.50;99.90;;;;;;7375937;19;20348;-69
2022/05/31 05:16:54;;;;;;;1.55;1.45;;;10.70;99.90;;;;;;7365947;19;20910;-67
2022/05/31 05:19:21;;;;;;;1.80;1.70;;;10.90;99.90;;;;;;7370241;19;20369;-67
2022/05/31 05:21:53;;;;;;;1.67;1.50;;;11.00;99.90;;;;;;7368264;19;20373;-68
2022/05/31 05:24:19;;;;;;;1.70;1.60;;;11.10;99.90;;;;;;7376882;19;20442;-67
2022/05/31 05:27:08;;;;;;;2.30;2.10;;;11.20;99.90;;;;;;7369994;19;20360;-68
2022/05/31 05:32:42;;;;;;;2.20;2.07;;;11.50;99.90;;;;;;7275339;19;2004725;-68
2022/05/31 05:35:27;;;;;;;1.95;1.85;;;11.70;99.90;;;;;;7372426;19;20332;-67
2022/05/31 05:38:01;;;;;;;2.40;2.20;;;11.70;99.90;;;;;;7370029;19;20348;-67
2022/05/31 05:40:34;;;;;;;2.20;2.10;;;11.90;99.90;;;;;;7374918;19;20340;-67
2022/05/31 05:43:08;;;;;;;2.33;2.13;;;11.70;99.90;;;;;;7375244;19;20786;-67
2022/05/31 05:45:42;;;;;;;1.65;1.55;;;11.70;99.90;;;;;;7370418;19;21351;-67
2022/05/31 05:48:08;;;;;;;1.77;1.67;;;11.90;99.90;;;;;;7371606;19;20368;-67
2022/05/31 05:50:34;;;;;;;2.40;1.90;;;12.20;99.90;;;;;;7376312;19;20328;-67
2022/05/31 05:53:07;;;;;;;1.70;1.60;;;12.50;99.90;;;;;;7377141;19;20351;-67
2022/05/31 05:55:41;;;;;;;3.00;1.70;;;12.80;99.90;;;;;;7373914;19;20733;-68
2022/05/31 05:58:30;;;;;;;3.03;2.10;;;12.90;99.90;;;;;;7369548;19;20357;-68
2022/05/31 06:01:16;;;;;;;2.53;2.03;;;12.90;99.90;;;;;;7371987;19;20363;-67
2022/05/31 06:04:00;;;;;;;2.08;1.88;;;12.90;99.90;;;;;;7373287;19;20336;-67
2022/05/31 06:06:27;;;;;;;1.80;1.70;;;12.90;99.90;;;;;;7370964;19;20341;-67
2022/05/31 06:09:02;;;;;;;1.90;1.80;;;12.90;99.90;;;;;;7368861;19;20360;-67
2022/05/31 06:11:35;;;;;;;2.20;2.00;;;12.80;99.90;;;;;;7369924;19;20955;-67
2022/05/31 06:14:20;;;;;;;1.80;1.70;;;12.80;99.90;;;;;;7373715;19;20363;-67
2022/05/31 06:16:49;;;;;;;2.30;2.10;;;13.00;99.90;;;;;;7369007;19;20390;-67
2022/05/31 06:19:19;;;;;;;2.20;2.10;;;13.10;99.90;;;;;;7372036;19;20352;-67
2022/05/31 06:21:45;;;;;;;1.77;1.67;;;13.30;99.90;;;;;;7375905;19;20363;-67
2022/05/31 06:24:23;;;;;;;2.20;2.00;;;13.40;99.90;;;;;;7374860;19;20443;-67
2022/05/31 06:26:49;;;;;;;2.10;1.90;;;13.60;99.90;;;;;;7369614;19;20999;-67
2022/05/31 06:29:15;;;;;;;2.23;2.07;;;13.80;99.90;;;;;;7371568;19;20364;-67
2022/05/31 06:31:40;;;;;;;2.30;2.00;;;14.10;99.90;;;;;;7373635;19;20352;-67
2022/05/31 06:34:16;;;;;;;1.98;1.80;;;14.10;99.90;;;;;;7377157;19;20328;-69
2022/05/31 06:37:16;;;;;;;2.37;2.17;;;14.10;99.90;;;;;;7368975;19;20351;-67
2022/05/31 06:39:44;;;;;;;2.05;1.85;;;14.20;99.90;;;;;;7373973;19;20357;-66
2022/05/31 06:42:26;;;;;;;2.05;1.80;;;14.50;99.90;;;;;;7376378;19;20380;-67
2022/05/31 06:45:21;;;;;;;2.33;1.75;;;14.60;99.90;;;;;;7367865;19;20360;-67
2022/05/31 06:48:05;;;;;;;3.35;1.60;;;14.70;99.90;;;;;;7372963;19;20363;-67
2022/05/31 06:50:49;;;;;;;1.40;1.30;;;14.90;99.90;;;;;;7376409;19;20367;-67
2022/05/31 06:59:23;;;;;;;1.60;1.50;;;16.00;99.90;;;;;;7370882;19;21120;-67
2022/05/31 07:01:49;;;;;;;1.40;1.30;;;16.10;99.90;;;;;;7374577;19;20332;-67
2022/05/31 07:04:17;;;;;;;2.00;1.42;;;16.20;99.90;;;;;;7376524;19;20364;-67
2022/05/31 07:06:42;;;;;;;1.60;1.50;;;16.40;99.90;;;;;;7369789;19;20365;-67
2022/05/31 07:09:26;;;;;;;1.60;1.20;;;16.30;99.90;;;;;;7371445;19;20385;-66
2022/05/31 07:11:57;;;;;;;2.10;1.40;;;16.50;99.90;;;;;;7373071;19;20349;-67
2022/05/31 07:14:41;;;;;;;2.47;1.33;;;16.40;99.90;;;;;;7375606;19;21238;-67
2022/05/31 07:17:25;;;;;;;1.20;1.10;;;16.10;99.90;;;;;;7369284;19;20367;-67
2022/05/31 07:19:55;;;;;;;1.15;1.15;;;16.40;99.90;;;;;;7372721;19;20369;-67
2022/05/31 07:22:21;;;;;;;1.40;1.30;;;16.60;99.90;;;;;;7375196;19;20348;-67
2022/05/31 07:24:53;;;;;;;1.30;1.15;;;16.80;99.90;;;;;;7372453;19;20369;-67
2022/05/31 07:27:24;;;;;;;1.25;1.15;;;17.00;99.90;;;;;;7367610;19;20365;-67
2022/05/31 07:29:56;;;;;;;1.30;1.20;;;17.10;99.90;;;;;;7373324;19;20428;-68
2022/05/31 07:32:21;;;;;;;1.25;1.15;;;17.30;99.90;;;;;;7373963;19;20344;-67
2022/05/31 07:34:48;;;;;;;3.30;2.57;;;17.20;99.90;;;;;;7378745;19;20376;-67
2022/05/31 07:37:14;;;;;;;1.48;1.38;;;16.60;99.90;;;;;;7375629;19;20344;-66
2022/05/31 07:39:41;;;;;;;1.55;1.38;;;16.80;99.90;;;;;;7379200;19;20874;-67
2022/05/31 07:42:07;;;;;;;1.40;1.30;;;16.90;99.90;;;;;;7381148;19;20407;-67
2022/05/31 07:44:33;;;;;;;2.15;1.30;;;17.10;99.90;;;;;;7381199;19;20394;-68
2022/05/31 07:47:02;;;;;;;1.20;1.10;;;17.40;99.90;;;;;;7377408;19;20344;-67
2022/05/31 07:49:29;;;;;;;1.85;1.30;;;17.60;99.90;;;;;;7375471;19;20352;-67
2022/05/31 07:52:08;;;;;;;1.20;1.10;;;17.50;99.90;;;;;;7379536;19;20395;-67
2022/05/31 07:55:03;;;;;;;1.40;1.30;;;17.30;99.90;;;;;;7379324;19;20667;-67
2022/05/31 08:01:13;;;;;;;1.40;1.30;;;17.20;99.90;;;;;;7378349;19;20351;-67
2022/05/31 08:03:39;;;;;;;2.38;1.10;;;17.60;99.90;;;;;;7379105;19;20920;-67
2022/05/31 08:06:16;;;;;;;1.33;1.23;;;18.00;99.90;;;;;;7376377;19;21695;-67
2022/05/31 08:08:41;;;;;;;1.98;1.33;;;18.30;99.90;;;;;;7375569;19;20456;-67
2022/05/31 08:11:13;;;;;;;1.40;1.27;;;18.40;99.90;;;;;;7380201;19;20411;-67
2022/05/31 08:13:39;;;;;;;1.40;1.30;;;18.50;99.90;;;;;;7380465;19;20389;-67
2022/05/31 08:16:05;;;;;;;3.40;1.20;;;18.60;99.90;;;;;;7373380;19;20373;-68
2022/05/31 08:18:31;;;;;;;1.45;1.20;;;18.90;99.90;;;;;;7374604;19;21201;-67
2022/05/31 08:20:58;;;;;;;1.85;1.17;;;19.10;99.90;;;;;;7378899;19;20377;-68
2022/05/31 08:23:24;;;;;;;1.10;1.10;;;19.30;99.90;;;;;;7379778;19;20939;-67
2022/05/31 08:25:49;;;;;;;1.50;1.37;;;19.50;99.90;;;;;;7378048;19;20463;-67
2022/05/31 08:28:15;;;;;;;2.57;1.37;;;19.50;99.90;;;;;;7377646;19;20352;-67
2022/05/31 08:30:41;;;;;;;1.40;1.30;;;19.50;99.90;;;;;;7378654;19;20994;-67
2022/05/31 08:33:06;;;;;;;1.20;1.10;;;19.50;99.90;;;;;;7381349;19;20364;-68
2022/05/31 08:35:32;;;;;;;1.20;1.10;;;19.40;99.90;;;;;;7376545;19;20337;-67
2022/05/31 08:37:57;;;;;;;3.30;1.27;;;19.50;99.90;;;;;;7376797;19;20387;-67
2022/05/31 08:40:23;;;;;;;2.15;1.20;;;19.50;99.90;;;;;;7380429;19;21209;-67
2022/05/31 08:42:51;;;;;;;1.10;1.10;;;19.90;99.90;;;;;;7380576;19;20353;-68
2022/05/31 08:45:45;;;;;;;3.95;1.30;;;20.10;99.90;;;;;;7378144;19;20379;-68
2022/05/31 08:48:31;;;;;;;3.25;1.48;;;20.30;99.90;;;;;;7373437;19;20390;-68
2022/05/31 08:56:57;;;;;;;1.50;1.40;;;21.10;99.90;;;;;;7369107;19;20375;-68
2022/05/31 08:59:46;;;;;;;4.00;1.40;;;21.10;99.90;;;;;;7374842;19;20372;-67
2022/05/31 09:02:18;;;;;;;1.10;1.10;;;21.10;99.90;;;;;;7377903;19;20355;-67
2022/05/31 09:04:46;;;;;;;1.40;1.30;;;21.00;99.90;;;;;;7379527;19;21016;-68
2022/05/31 09:07:17;;;;;;;1.40;1.30;;;21.20;99.90;;;;;;7373230;19;21139;-68
2022/05/31 09:09:57;;;;;;;2.60;1.48;;;21.50;99.90;;;;;;7376745;19;20372;-68
2022/05/31 09:12:36;;;;;;;1.60;1.50;;;21.60;99.80;;;;;;7382108;19;20509;-68
2022/05/31 09:15:16;;;;;;;2.13;1.40;;;21.80;99.40;;;;;;7377112;19;20906;-68
2022/05/31 09:18:04;;;;;;;1.45;1.23;;;21.50;97.60;;;;;;7372568;19;20864;-68
2022/05/31 09:20:46;;;;;;;2.00;1.40;;;21.50;98.20;;;;;;7379555;19;20700;-68
2022/05/31 09:23:12;;;;;;;4.68;1.52;;;21.70;97.10;;;;;;7376864;19;20376;-69
2022/05/31 09:25:39;;;;;;;1.40;1.30;;;22.10;96.80;;;;;;7372094;19;20368;-68
2022/05/31 09:28:18;;;;;;;1.90;1.35;;;22.10;96.40;;;;;;7370223;19;20357;-68
2022/05/31 09:30:44;;;;;;;2.20;1.50;;;22.60;95.90;;;;;;7374443;19;20420;-68
2022/05/31 09:33:10;;;;;;;1.10;1.10;;;22.90;95.00;;;;;;7377131;19;20412;-69
2022/05/31 09:35:50;;;;;;;1.40;1.30;;;23.20;95.10;;;;;;7370095;19;20375;-68
2022/05/31 09:38:26;;;;;;;1.43;1.23;;;23.00;92.20;;;;;;7370575;19;20342;-68
2022/05/31 09:41:05;;;;;;;2.20;1.20;;;23.10;93.40;;;;;;7376960;19;20431;-68
2022/05/31 09:44:04;;;;;;;1.83;1.50;;;23.50;91.50;;;;;;7378412;19;20352;-68
2022/05/31 09:46:39;;;;;;;1.30;1.20;;;23.20;88.90;;;;;;7370996;19;20726;-68
2022/05/31 09:49:21;;;;;;;1.65;1.40;;;23.40;91.00;;;;;;7372284;19;20363;-68
2022/05/31 09:51:46;;;;;;;1.23;1.10;;;23.60;90.70;;;;;;7375348;19;20415;-68
2022/05/31 09:57:21;;;;;;;2.17;1.40;;;23.40;89.20;;;;;;7369475;19;20356;-68
2022/05/31 10:00:25;;;;;;;1.27;1.15;;;22.50;88.90;;;;;;7373655;19;20345;-68
2022/05/31 10:03:10;;;;;;;1.27;1.17;;;23.10;90.70;;;;;;7373084;19;20369;-68
2022/05/31 10:05:36;;;;;;;3.08;1.40;;;23.70;90.60;;;;;;7371672;19;20356;-68
2022/05/31 10:08:02;;;;;;;1.40;1.30;;;24.10;89.70;;;;;;7375180;19;21423;-68
2022/05/31 10:10:29;;;;;;;3.17;1.30;;;24.20;85.50;;;;;;7377868;19;20345;-68
2022/05/31 10:12:57;;;;;;;2.90;1.20;;;24.10;85.60;;;;;;7376906;19;20377;-68
2022/05/31 10:15:50;;;;;;;1.50;1.40;;;23.30;80.90;;;;;;7374979;19;20367;-68
2022/05/31 10:18:25;;;;;;;1.45;1.30;;;23.50;84.70;;;;;;7369813;19;20377;-68
2022/05/31 10:20:55;;;;;;;1.30;1.20;;;23.70;83.80;;;;;;7373111;19;20478;-69
2022/05/31 10:23:22;;;;;;;1.50;1.30;;;24.00;85.90;;;;;;7375328;19;20808;-68
2022/05/31 10:26:07;;;;;;;2.90;1.30;;;24.10;85.30;;;;;;7372970;19;20439;-68
2022/05/31 10:29:16;;;;;;;1.33;1.20;;;23.70;82.20;;;;;;7369750;19;20368;-68
2022/05/31 10:32:28;;;;;;;1.50;1.40;;;23.90;79.40;;;;;;7371988;19;20424;-68
2022/05/31 10:35:26;;;;;;;1.33;1.23;;;23.70;81.70;;;;;;7372809;19;20348;-68
2022/05/31 10:37:58;;;;;;;2.00;1.40;;;23.80;83.90;;;;;;7372598;19;20369;-69
2022/05/31 10:40:54;;;;;;;2.72;1.50;;;23.40;78.70;;;;;;7360701;19;20972;-68
2022/05/31 10:43:25;;;;;;;3.58;1.45;;;22.60;77.80;;;;;;7374260;19;20368;-69
2022/05/31 10:45:52;;;;;;;1.35;1.25;;;22.80;79.40;;;;;;7369246;19;20360;-68
2022/05/31 10:48:17;;;;;;;2.80;1.40;;;22.70;83.40;;;;;;7368304;19;20333;-68
2022/05/31 10:51:00;;;;;;;2.00;1.40;;;23.30;84.00;;;;;;7372764;19;20993;-68
2022/05/31 10:53:53;;;;;;;1.80;1.38;;;24.30;84.40;;;;;;7373944;19;20375;-69
2022/05/31 10:56:41;;;;;;;3.50;1.67;;;25.50;82.50;;;;;;7368284;19;20369;-68
2022/05/31 10:59:14;;;;;;;1.85;1.50;;;26.30;76.80;;;;;;7370310;19;20357;-68
2022/05/31 11:01:49;;;;;;;1.67;1.40;;;26.70;72.50;;;;;;7373432;19;21521;-68
2022/05/31 11:04:21;;;;;;;1.25;1.20;;;27.00;75.70;;;;;;7377230;19;20452;-68
2022/05/31 11:06:53;;;;;;;2.55;1.35;;;26.10;69.20;;;;;;7371920;19;21150;-68
2022/05/31 11:12:25;;;;;;;2.10;1.50;;;26.20;68.00;;;;;;7383310;19;21110;-68
2022/05/31 11:15:00;;;;;;;1.40;1.30;;;26.70;71.40;;;;;;7381204;19;20332;-68
2022/05/31 11:17:43;;;;;;;1.37;1.30;;;26.30;68.40;;;;;;7376561;19;20482;-68
2022/05/31 11:20:17;;;;;;;1.55;1.40;;;27.00;72.70;;;;;;7382074;19;20427;-68
2022/05/31 11:23:38;;;;;;;1.70;1.40;;;27.20;69.20;;;;;;7381673;19;20380;-69
2022/05/31 11:26:27;;;;;;;1.75;1.45;;;27.30;65.10;;;;;;7376995;19;20353;-68
2022/05/31 11:29:18;;;;;;;2.10;1.40;;;26.70;70.40;;;;;;7375187;19;20368;-68
2022/05/31 11:32:05;;;;;;;1.42;1.33;;;27.10;67.10;;;;;;7382126;19;20346;-69
2022/05/31 11:34:51;;;;;;;1.42;1.33;;;25.40;59.70;;;;;;7383516;19;20350;-68
2022/05/31 11:37:32;;;;;;;1.42;1.33;;;25.80;70.30;;;;;;7376894;19;20423;-69
2022/05/31 11:40:04;;;;;;;1.50;1.40;;;26.50;68.90;;;;;;7379402;19;21253;-68
2022/05/31 11:43:07;;;;;;;2.38;1.38;;;27.00;66.10;;;;;;7381445;19;21207;-69
2022/05/31 11:45:58;;;;;;;1.88;1.13;;;27.60;66.20;;;;;;7378248;19;20372;-68
2022/05/31 11:48:42;;;;;;;3.03;1.58;;;28.10;65.50;;;;;;7377999;19;21104;-68
2022/05/31 11:51:31;;;;;;;3.00;1.40;;;26.80;58.50;;;;;;7381409;19;20332;-68
2022/05/31 11:53:56;;;;;;;1.50;1.40;;;28.00;65.10;;;;;;7380234;19;20380;-68
2022/05/31 11:56:28;;;;;;;2.70;1.30;;;28.60;64.00;;;;;;7376635;19;20375;-68
2022/05/31 11:59:15;;;;;;;1.50;1.40;;;28.90;63.00;;;;;;7372784;19;20369;-68
2022/05/31 12:01:49;;;;;;;1.30;1.20;;;29.20;63.70;;;;;;7378980;19;20893;-68
2022/05/31 12:04:35;;;;;;;1.50;1.40;;;28.60;60.10;;;;;;7381636;19;20368;-68
2022/05/31 12:07:04;;;;;;;1.20;1.10;;;29.40;62.80;;;;;;7378829;19;20989;-68
2022/05/31 12:09:37;;;;;;;1.90;1.20;;;29.80;61.10;;;;;;7374817;19;20353;-68
2022/05/31 12:12:23;;;;;;;1.50;1.40;;;30.50;60.90;;;;;;7378735;19;20448;-68
2022/05/31 12:14:52;;;;;;;1.33;1.23;;;30.70;58.50;;;;;;7379350;19;20353;-69
2022/05/31 12:17:28;;;;;;;1.60;1.33;;;31.20;57.20;;;;;;7374409;19;20700;-69
2022/05/31 12:20:04;;;;;;;1.90;1.50;;;31.40;56.80;;;;;;7376080;19;20706;-69
2022/05/31 12:22:33;;;;;;;1.70;1.38;;;31.50;54.20;;;;;;7377590;19;20866;-69
2022/05/31 12:25:16;;;;;;;2.20;1.30;;;31.40;53.20;;;;;;7377977;19;20855;-67
2022/05/31 12:27:53;;;;;;;1.30;1.20;;;31.70;54.10;;;;;;7372686;19;20371;-69
2022/05/31 12:30:19;;;;;;;1.50;1.40;;;31.30;52.90;;;;;;7376495;19;21292;-68
2022/05/31 12:32:46;;;;;;;1.10;1.10;;;29.30;48.60;;;;;;7379191;19;20364;-69
2022/05/31 12:35:32;;;;;;;5.70;1.20;;;29.80;51.20;;;;;;7376066;19;20359;-68
2022/05/31 12:38:00;;;;;;;1.38;1.30;;;30.70;53.00;;;;;;7370717;19;20364;-69
2022/05/31 12:40:36;;;;;;;1.30;1.00;;;30.00;51.80;;;;;;7379061;19;20352;-69
2022/05/31 12:43:07;;;;;;;3.03;1.30;;;30.40;52.50;;;;;;7380649;19;21786;-69
2022/05/31 12:45:32;;;;;;;1.50;1.20;;;30.60;53.30;;;;;;7378335;19;20381;-69
2022/05/31 12:48:11;;;;;;;1.30;1.20;;;30.30;52.80;;;;;;7371803;19;20373;-69
2022/05/31 12:50:47;;;;;;;2.65;1.30;;;31.10;52.60;;;;;;7377776;19;20328;-69
2022/05/31 12:53:23;;;;;;;2.05;1.20;;;31.00;48.20;;;;;;7378855;19;20404;-69
2022/05/31 12:55:50;;;;;;;1.90;1.70;;;30.80;51.90;;;;;;7375561;19;20352;-68
2022/05/31 12:58:35;;;;;;;3.45;2.28;;;31.60;51.50;;;;;;7368651;19;20450;-69
2022/05/31 13:01:13;;;;;;;1.38;1.27;;;30.80;47.90;;;;;;7372764;19;20332;-69
2022/05/31 13:03:42;;;;;;;1.40;1.30;;;31.80;49.90;;;;;;7379836;19;20830;-70
2022/05/31 13:06:15;;;;;;;1.90;1.40;;;32.60;50.60;;;;;;7373160;19;20349;-69
2022/05/31 13:08:55;;;;;;;1.83;1.30;;;33.30;49.50;;;;;;7373057;19;20348;-70
2022/05/31 13:19:45;;;;;;;1.75;1.20;;;32.00;50.60;;;;;;7375840;19;20356;-69
2022/05/31 13:22:17;;;;;;;1.40;1.20;;;32.60;48.20;;;;;;7378028;19;20360;-69
2022/05/31 13:24:51;;;;;;;1.10;1.10;;;33.20;47.80;;;;;;7376504;19;20444;-70
2022/05/31 13:27:26;;;;;;;1.23;1.20;;;33.80;47.50;;;;;;7370596;19;20424;-69
2022/05/31 13:30:03;;;;;;;1.63;1.30;;;33.30;43.80;;;;;;7376239;19;20416;-70
2022/05/31 13:32:35;;;;;;;1.20;1.10;;;33.30;46.10;;;;;;7372976;19;20349;-69
2022/05/31 13:35:05;;;;;;;1.45;1.35;;;33.20;46.20;;;;;;7375206;19;21338;-69
2022/05/31 13:37:31;;;;;;;2.42;1.38;;;32.10;43.10;;;;;;7371728;19;20360;-69
2022/05/31 13:39:57;;;;;;;1.50;1.40;;;31.40;44.70;;;;;;7373470;19;20663;-69
2022/05/31 13:42:28;;;;;;;1.30;1.20;;;30.20;45.60;;;;;;7375998;19;20385;-69
2022/05/31 13:44:53;;;;;;;1.52;1.20;;;30.00;48.30;;;;;;7374142;19;20936;-69
2022/05/31 13:47:19;;;;;;;1.40;1.30;;;29.30;49.60;;;;;;7365230;19;20380;-69
2022/05/31 13:49:45;;;;;;;1.33;1.23;;;29.00;47.40;;;;;;7373530;19;20356;-69
2022/05/31 13:52:24;;;;;;;1.35;1.25;;;28.50;50.10;;;;;;7373302;19;20439;-69
2022/05/31 13:54:50;;;;;;;1.38;1.27;;;28.30;49.40;;;;;;7375818;19;20356;-69
2022/05/31 13:57:18;;;;;;;2.90;2.60;;;27.60;50.40;;;;;;7373130;19;20348;-69
2022/05/31 13:59:48;;;;;;;2.20;1.50;;;27.20;50.40;;;;;;7372693;19;20353;-69